Time;durP1;ratioP1;P1;durP2;ratioP2;P2;SDS_P1;SDS_P2;PMS_P1;PMS_P2;Temp;Humidity;BMP_temperature;BMP_pressure;BME280_temperature;BME280_humidity;BME280_pressure;Samples;Min_cycle;Max_cycle;Signal;HPM_P1;HPM_P2
2023/09/09 00:01:29;;;;;;;133.00;109.20;;;20.40;99.90;;;;;;5102514;28;20062;-66
2023/09/09 00:03:55;;;;;;;137.27;112.50;;;20.40;99.90;;;;;;5103015;28;20467;-67
2023/09/09 00:06:21;;;;;;;146.75;117.05;;;20.30;99.90;;;;;;5101321;28;20452;-67
2023/09/09 00:08:46;;;;;;;146.80;118.22;;;20.30;99.90;;;;;;5101856;28;20048;-67
2023/09/09 00:11:12;;;;;;;149.45;119.80;;;20.30;99.90;;;;;;5100538;28;20024;-66
2023/09/09 00:13:37;;;;;;;147.50;116.13;;;20.30;99.90;;;;;;5103005;28;20398;-67
2023/09/09 00:16:04;;;;;;;147.90;122.45;;;20.30;99.90;;;;;;5101286;28;20449;-67
2023/09/09 00:18:29;;;;;;;159.02;124.72;;;20.20;99.90;;;;;;5102308;28;20026;-66
2023/09/09 00:20:55;;;;;;;172.68;132.30;;;20.20;99.90;;;;;;5102728;28;20032;-67
2023/09/09 00:23:21;;;;;;;173.40;132.38;;;20.20;99.90;;;;;;5100355;28;20027;-67
2023/09/09 00:25:47;;;;;;;177.10;131.40;;;20.20;99.90;;;;;;5099714;28;20056;-66
2023/09/09 00:28:14;;;;;;;178.38;133.38;;;20.20;99.90;;;;;;5100669;28;20050;-66
2023/09/09 00:30:41;;;;;;;178.45;131.23;;;20.20;99.90;;;;;;5107576;28;20019;-67
2023/09/09 00:33:10;;;;;;;167.23;128.50;;;20.20;99.90;;;;;;5112353;28;20020;-68
2023/09/09 00:35:38;;;;;;;172.80;129.32;;;20.20;99.90;;;;;;5110118;28;20028;-68
2023/09/09 00:38:13;;;;;;;177.93;135.32;;;20.20;99.90;;;;;;5110687;28;20096;-67
2023/09/09 00:40:43;;;;;;;183.48;137.50;;;20.20;99.90;;;;;;5111271;28;20037;-65
2023/09/09 00:43:08;;;;;;;167.88;131.77;;;20.20;99.90;;;;;;5112772;28;20035;-66
2023/09/09 00:45:34;;;;;;;156.98;122.57;;;20.10;99.90;;;;;;5112131;28;20015;-65
2023/09/09 00:48:00;;;;;;;163.85;129.10;;;20.10;99.90;;;;;;5108732;28;20027;-66
2023/09/09 00:50:27;;;;;;;175.13;128.75;;;20.10;99.90;;;;;;5104448;28;20130;-67
2023/09/09 00:52:53;;;;;;;171.70;130.35;;;20.10;99.90;;;;;;5115640;28;20035;-66
2023/09/09 00:55:19;;;;;;;175.40;125.40;;;20.10;99.90;;;;;;5098307;28;20051;-67
2023/09/09 00:57:44;;;;;;;172.43;127.88;;;20.10;99.90;;;;;;5103116;28;20094;-66
2023/09/09 01:00:10;;;;;;;177.38;132.50;;;20.10;99.90;;;;;;5116319;28;20028;-67
2023/09/09 01:02:40;;;;;;;182.93;136.73;;;20.10;99.90;;;;;;5114097;28;20027;-67
2023/09/09 01:05:07;;;;;;;179.90;132.38;;;20.10;99.90;;;;;;5107914;28;20080;-64
2023/09/09 01:07:46;;;;;;;180.93;131.82;;;20.00;99.90;;;;;;5097124;28;20040;-65
2023/09/09 01:10:13;;;;;;;200.20;140.02;;;20.00;99.90;;;;;;5095193;28;20064;-66
2023/09/09 01:12:39;;;;;;;186.45;138.27;;;20.00;99.90;;;;;;5107687;28;20157;-66
2023/09/09 01:15:06;;;;;;;198.82;142.80;;;20.00;99.90;;;;;;5115637;28;20055;-67
2023/09/09 01:17:33;;;;;;;186.43;132.25;;;19.90;99.90;;;;;;5115817;28;20028;-67
2023/09/09 01:19:59;;;;;;;186.90;134.98;;;20.00;99.90;;;;;;5115813;28;20030;-65
2023/09/09 01:22:25;;;;;;;209.32;145.77;;;19.90;99.90;;;;;;5115680;27;20093;-66
2023/09/09 01:24:51;;;;;;;175.93;133.07;;;19.90;99.90;;;;;;5103837;28;20034;-66
2023/09/09 01:27:16;;;;;;;186.32;135.27;;;19.90;99.90;;;;;;5115576;28;20085;-66
2023/09/09 01:29:42;;;;;;;199.50;141.98;;;19.90;99.90;;;;;;5114166;28;20048;-66
2023/09/09 01:32:07;;;;;;;206.80;146.63;;;19.90;99.90;;;;;;5115510;28;20062;-69
2023/09/09 01:34:33;;;;;;;195.85;143.85;;;19.80;99.90;;;;;;5115143;28;20075;-66
2023/09/09 01:36:58;;;;;;;208.95;152.65;;;19.80;99.90;;;;;;5110813;28;20066;-66
2023/09/09 01:39:24;;;;;;;195.80;145.85;;;19.80;99.90;;;;;;5101316;28;20361;-65
2023/09/09 01:41:50;;;;;;;172.45;129.65;;;19.80;99.90;;;;;;5095125;28;20069;-67
2023/09/09 01:44:16;;;;;;;212.80;155.50;;;19.80;99.90;;;;;;5098520;28;20095;-66
2023/09/09 01:46:41;;;;;;;193.60;144.23;;;19.80;99.90;;;;;;5106927;28;20059;-65
2023/09/09 01:49:07;;;;;;;173.02;132.23;;;19.70;99.90;;;;;;5105669;28;20442;-66
2023/09/09 01:51:33;;;;;;;179.18;131.38;;;19.70;99.90;;;;;;5105640;28;20031;-65
2023/09/09 01:53:58;;;;;;;200.00;144.23;;;19.70;99.90;;;;;;5113399;28;20028;-66
2023/09/09 01:56:24;;;;;;;197.77;142.00;;;19.70;99.90;;;;;;5113045;28;20359;-66
2023/09/09 01:58:50;;;;;;;197.55;142.90;;;19.70;99.90;;;;;;5105649;28;20380;-66
2023/09/09 02:01:15;;;;;;;205.18;148.18;;;19.70;99.90;;;;;;5094878;28;20380;-66
2023/09/09 02:03:41;;;;;;;204.68;147.35;;;19.70;99.90;;;;;;5110245;28;20387;-65
2023/09/09 02:06:06;;;;;;;202.50;144.68;;;19.70;99.90;;;;;;5097351;28;20445;-64
2023/09/09 02:08:32;;;;;;;173.30;133.25;;;19.60;99.90;;;;;;5106810;28;20052;-65
2023/09/09 02:10:58;;;;;;;193.18;143.77;;;19.60;99.90;;;;;;5093821;28;20031;-66
2023/09/09 02:13:23;;;;;;;201.88;143.02;;;19.60;99.90;;;;;;5107475;28;20471;-67
2023/09/09 02:15:49;;;;;;;210.70;141.32;;;19.60;99.90;;;;;;5097233;28;20028;-66
2023/09/09 02:18:14;;;;;;;192.82;137.23;;;19.50;99.90;;;;;;5109682;28;20031;-66
2023/09/09 02:20:40;;;;;;;191.95;142.23;;;19.50;99.90;;;;;;5101464;28;20080;-65
2023/09/09 02:23:05;;;;;;;194.32;144.75;;;19.50;99.90;;;;;;5114514;28;20082;-65
2023/09/09 02:25:31;;;;;;;205.18;146.75;;;19.50;99.90;;;;;;5114006;28;20024;-66
2023/09/09 02:27:56;;;;;;;197.00;139.88;;;19.50;99.90;;;;;;5114716;28;20070;-65
2023/09/09 02:30:22;;;;;;;201.02;148.30;;;19.40;99.90;;;;;;5114291;28;20039;-66
2023/09/09 02:32:49;;;;;;;204.45;146.68;;;19.40;99.90;;;;;;5114576;28;20031;-64
2023/09/09 02:35:14;;;;;;;203.82;145.05;;;19.40;99.90;;;;;;5098093;28;20032;-65
2023/09/09 02:37:40;;;;;;;209.05;149.35;;;19.40;99.90;;;;;;5098696;28;20023;-66
2023/09/09 02:40:06;;;;;;;202.07;141.05;;;19.40;99.90;;;;;;5113913;28;20057;-66
2023/09/09 02:42:32;;;;;;;221.00;152.77;;;19.30;99.90;;;;;;5114236;28;20072;-66
2023/09/09 02:44:57;;;;;;;215.00;156.30;;;19.30;99.90;;;;;;5106267;28;20114;-66
2023/09/09 02:47:23;;;;;;;227.95;160.00;;;19.30;99.90;;;;;;5114003;28;20061;-65
2023/09/09 02:49:50;;;;;;;233.07;162.75;;;19.30;99.90;;;;;;5113720;28;20070;-66
2023/09/09 02:52:15;;;;;;;255.85;175.10;;;19.30;99.90;;;;;;5114116;28;20470;-66
2023/09/09 02:54:41;;;;;;;253.18;168.52;;;19.30;99.90;;;;;;5109877;27;20027;-66
2023/09/09 02:57:06;;;;;;;278.40;183.05;;;19.20;99.90;;;;;;5113383;28;20038;-65
2023/09/09 02:59:33;;;;;;;273.05;180.50;;;19.20;99.90;;;;;;5113052;28;20107;-64
2023/09/09 03:01:59;;;;;;;266.83;179.02;;;19.20;99.90;;;;;;5104095;28;20069;-65
2023/09/09 03:04:25;;;;;;;284.13;187.95;;;19.20;99.90;;;;;;5093261;28;20089;-65
2023/09/09 03:06:51;;;;;;;257.60;171.05;;;19.20;99.90;;;;;;5093327;28;20357;-64
2023/09/09 03:09:17;;;;;;;282.30;190.75;;;19.20;99.90;;;;;;5091969;28;20082;-64
2023/09/09 03:11:42;;;;;;;283.65;190.77;;;19.10;99.90;;;;;;5092644;28;20024;-65
2023/09/09 03:14:08;;;;;;;298.70;194.32;;;19.10;99.90;;;;;;5098243;28;20024;-66
2023/09/09 03:16:35;;;;;;;306.58;190.70;;;19.10;99.90;;;;;;5112058;28;20024;-66
2023/09/09 03:19:01;;;;;;;307.95;200.30;;;19.10;99.90;;;;;;5107833;28;20085;-65
2023/09/09 03:21:26;;;;;;;317.38;200.25;;;19.00;99.90;;;;;;5113289;28;20028;-67
2023/09/09 03:23:52;;;;;;;307.15;193.23;;;19.00;99.90;;;;;;5111506;28;20439;-64
2023/09/09 03:26:18;;;;;;;292.33;194.32;;;19.00;99.90;;;;;;5112622;28;20035;-65
2023/09/09 03:28:45;;;;;;;284.60;191.57;;;19.00;99.90;;;;;;5110940;28;20062;-66
2023/09/09 03:31:11;;;;;;;306.67;203.10;;;18.90;99.90;;;;;;5113050;28;20443;-66
2023/09/09 03:33:37;;;;;;;305.80;196.65;;;18.90;99.90;;;;;;5110843;27;20024;-65
2023/09/09 03:36:03;;;;;;;307.45;198.95;;;18.90;99.90;;;;;;5093469;28;20024;-66
2023/09/09 03:38:29;;;;;;;319.55;203.75;;;18.90;99.90;;;;;;5092912;28;20054;-66
2023/09/09 03:40:54;;;;;;;325.20;208.20;;;18.80;99.90;;;;;;5093004;28;20020;-66
2023/09/09 03:43:20;;;;;;;288.52;188.60;;;18.80;99.90;;;;;;5092523;28;20078;-65
2023/09/09 03:45:46;;;;;;;292.95;190.30;;;18.80;99.90;;;;;;5110340;28;20386;-65
2023/09/09 03:48:11;;;;;;;314.85;202.43;;;18.70;99.90;;;;;;5092337;28;20035;-66
2023/09/09 03:50:37;;;;;;;296.58;191.63;;;18.70;99.90;;;;;;5092801;28;20028;-63
2023/09/09 03:53:03;;;;;;;307.63;193.25;;;18.70;99.90;;;;;;5092628;28;20060;-65
2023/09/09 03:55:28;;;;;;;323.35;197.75;;;18.60;99.90;;;;;;5092536;28;20029;-65
2023/09/09 03:57:54;;;;;;;319.15;199.75;;;18.60;99.90;;;;;;5092370;28;20025;-66
2023/09/09 04:00:20;;;;;;;334.50;205.77;;;18.60;99.90;;;;;;5100354;28;20055;-66
2023/09/09 04:02:46;;;;;;;344.00;210.45;;;18.60;99.90;;;;;;5112421;28;20024;-66
2023/09/09 04:05:11;;;;;;;335.48;204.75;;;18.50;99.90;;;;;;5113567;28;20028;-64
2023/09/09 04:07:37;;;;;;;350.95;216.05;;;18.50;99.90;;;;;;5113421;28;20054;-66
2023/09/09 04:10:03;;;;;;;349.85;216.80;;;18.50;99.90;;;;;;5113381;28;20058;-65
2023/09/09 04:12:29;;;;;;;366.27;218.35;;;18.50;99.90;;;;;;5113315;28;20059;-63
2023/09/09 04:14:54;;;;;;;333.42;203.57;;;18.40;99.90;;;;;;5111634;28;20081;-65
2023/09/09 04:17:20;;;;;;;290.80;184.23;;;18.40;99.90;;;;;;5103204;28;20043;-65
2023/09/09 04:19:45;;;;;;;274.50;179.80;;;18.40;99.90;;;;;;5094851;28;20023;-64
2023/09/09 04:22:11;;;;;;;232.43;159.30;;;18.40;99.90;;;;;;5113223;28;20027;-65
2023/09/09 04:24:36;;;;;;;217.75;152.48;;;18.40;99.90;;;;;;5115099;28;20024;-65
2023/09/09 04:27:02;;;;;;;240.10;161.55;;;18.30;99.90;;;;;;5117323;28;20024;-64
2023/09/09 04:29:28;;;;;;;245.00;159.35;;;18.30;99.90;;;;;;5116990;27;20118;-66
2023/09/09 04:31:53;;;;;;;231.50;155.45;;;18.30;99.90;;;;;;5114653;28;20069;-65
2023/09/09 04:34:19;;;;;;;272.38;166.68;;;18.20;99.90;;;;;;5115163;28;20069;-65
2023/09/09 04:36:45;;;;;;;276.10;173.52;;;18.20;99.90;;;;;;5116516;28;20383;-66
2023/09/09 04:39:13;;;;;;;267.20;167.93;;;18.20;99.90;;;;;;5116729;27;20459;-65
2023/09/09 04:41:42;;;;;;;285.38;175.52;;;18.20;99.90;;;;;;5115338;28;20032;-66
2023/09/09 04:44:11;;;;;;;338.90;189.77;;;18.20;99.90;;;;;;5116804;28;20481;-64
2023/09/09 04:46:37;;;;;;;349.33;193.18;;;18.20;99.90;;;;;;5116590;28;20382;-65
2023/09/09 04:49:03;;;;;;;362.15;196.52;;;18.30;99.90;;;;;;5111639;28;20039;-64
2023/09/09 04:51:29;;;;;;;340.50;188.80;;;18.40;99.90;;;;;;5116136;27;20019;-65
2023/09/09 04:53:55;;;;;;;309.30;175.38;;;18.40;99.90;;;;;;5115408;28;20023;-63
2023/09/09 04:56:20;;;;;;;260.85;154.52;;;18.40;99.90;;;;;;5107153;28;20192;-64
2023/09/09 04:58:46;;;;;;;261.67;154.85;;;18.30;99.90;;;;;;5109093;28;20133;-65
2023/09/09 05:01:11;;;;;;;233.45;145.55;;;18.30;99.90;;;;;;5099947;28;20020;-64
2023/09/09 05:03:37;;;;;;;229.13;139.40;;;18.30;99.90;;;;;;5111299;28;20028;-65
2023/09/09 05:06:02;;;;;;;222.65;133.75;;;18.20;99.90;;;;;;5101446;28;20020;-65
2023/09/09 05:08:28;;;;;;;210.75;115.82;;;18.20;99.90;;;;;;5115848;28;20075;-65
2023/09/09 05:10:54;;;;;;;213.65;109.47;;;18.30;99.90;;;;;;5101411;28;20100;-66
2023/09/09 05:13:19;;;;;;;231.93;105.75;;;18.20;99.90;;;;;;5112946;28;20036;-66
2023/09/09 05:15:46;;;;;;;224.20;103.55;;;18.20;99.90;;;;;;5115423;28;20027;-64
2023/09/09 05:18:12;;;;;;;222.98;99.07;;;18.10;99.90;;;;;;5108323;28;20020;-64
2023/09/09 05:20:38;;;;;;;263.23;99.63;;;18.20;99.90;;;;;;5106114;28;20099;-66
2023/09/09 05:23:03;;;;;;;265.77;93.53;;;18.20;99.90;;;;;;5100681;28;20457;-65
2023/09/09 05:25:29;;;;;;;266.17;92.65;;;18.10;99.90;;;;;;5111834;28;20027;-66
2023/09/09 05:27:54;;;;;;;270.67;94.65;;;18.10;99.90;;;;;;5099712;28;20125;-66
2023/09/09 05:30:20;;;;;;;315.02;113.13;;;18.20;99.90;;;;;;5106284;28;20135;-67
2023/09/09 05:32:46;;;;;;;313.08;116.38;;;18.20;99.90;;;;;;5107395;28;20138;-65
2023/09/09 05:35:11;;;;;;;270.75;113.13;;;18.20;99.90;;;;;;5113689;28;20116;-65
2023/09/09 05:37:37;;;;;;;268.00;114.07;;;18.30;99.90;;;;;;5112830;28;20051;-64
2023/09/09 05:40:03;;;;;;;273.98;127.22;;;18.30;99.90;;;;;;5100680;28;20019;-65
2023/09/09 05:42:29;;;;;;;233.10;125.88;;;18.40;99.90;;;;;;5107590;28;20028;-64
2023/09/09 05:44:54;;;;;;;240.35;131.60;;;18.40;99.90;;;;;;5101543;28;20028;-65
2023/09/09 05:47:20;;;;;;;223.93;129.60;;;18.40;99.90;;;;;;5111453;28;20031;-65
2023/09/09 05:49:46;;;;;;;201.13;127.95;;;18.50;99.90;;;;;;5098082;28;20034;-65
2023/09/09 05:52:14;;;;;;;225.02;141.25;;;18.60;99.90;;;;;;5107243;28;20024;-64
2023/09/09 05:54:39;;;;;;;221.15;144.77;;;18.60;99.90;;;;;;5105654;28;20167;-64
2023/09/09 05:57:05;;;;;;;224.07;141.63;;;18.70;99.90;;;;;;5115031;28;20051;-64
2023/09/09 05:59:32;;;;;;;247.75;159.73;;;18.80;99.90;;;;;;5115280;28;20028;-65
2023/09/09 06:01:57;;;;;;;235.13;147.32;;;18.90;99.90;;;;;;5110947;28;20064;-64
2023/09/09 06:04:23;;;;;;;231.98;159.05;;;19.00;99.90;;;;;;5113058;28;20023;-64
2023/09/09 06:06:49;;;;;;;176.68;130.35;;;19.10;99.90;;;;;;5114896;28;20028;-63
2023/09/09 06:09:15;;;;;;;189.63;138.85;;;19.20;99.90;;;;;;5114559;28;20058;-64
2023/09/09 06:11:40;;;;;;;201.68;142.48;;;19.30;99.90;;;;;;5109725;28;20028;-65
2023/09/09 06:14:06;;;;;;;153.93;119.38;;;19.40;99.90;;;;;;5113835;28;20383;-65
2023/09/09 06:16:32;;;;;;;139.70;113.97;;;19.40;99.90;;;;;;5104715;28;20455;-65
2023/09/09 06:18:58;;;;;;;152.27;122.03;;;19.50;99.90;;;;;;5094713;28;20035;-66
2023/09/09 06:21:25;;;;;;;140.05;114.18;;;19.60;99.90;;;;;;5094219;28;20404;-64
2023/09/09 06:23:50;;;;;;;140.23;115.53;;;19.60;99.90;;;;;;5109834;28;20433;-65
2023/09/09 06:26:16;;;;;;;135.95;113.88;;;19.70;99.90;;;;;;5114414;28;20027;-65
2023/09/09 06:28:41;;;;;;;138.88;113.97;;;19.80;99.90;;;;;;5113068;28;20110;-65
2023/09/09 06:31:07;;;;;;;140.70;115.93;;;19.80;99.90;;;;;;5110747;28;20459;-65
2023/09/09 06:33:33;;;;;;;134.95;112.72;;;19.90;99.90;;;;;;5112723;28;20027;-65
2023/09/09 06:35:59;;;;;;;119.05;103.18;;;20.00;99.90;;;;;;5105715;28;20486;-65
2023/09/09 06:38:24;;;;;;;123.13;105.53;;;20.00;99.90;;;;;;5114087;28;20134;-66
2023/09/09 06:40:50;;;;;;;122.13;106.32;;;20.10;99.90;;;;;;5097160;28;20081;-64
2023/09/09 06:43:20;;;;;;;105.72;93.65;;;20.20;99.90;;;;;;5107758;28;20038;-65
2023/09/09 06:45:46;;;;;;;115.70;101.38;;;20.30;99.90;;;;;;5103627;28;20023;-64
2023/09/09 06:48:21;;;;;;;107.53;95.70;;;20.40;99.90;;;;;;5110416;28;20027;-64
2023/09/09 06:50:47;;;;;;;105.93;93.93;;;20.50;99.90;;;;;;5112159;28;20059;-64
2023/09/09 06:53:14;;;;;;;105.57;93.60;;;20.60;99.90;;;;;;5099022;28;20413;-65
2023/09/09 06:55:41;;;;;;;91.43;80.82;;;20.80;99.90;;;;;;5104299;28;20111;-65
2023/09/09 06:58:07;;;;;;;87.95;78.43;;;20.90;99.90;;;;;;5106286;28;20106;-64
2023/09/09 07:00:33;;;;;;;84.93;75.78;;;21.00;99.90;;;;;;5097109;28;20049;-65
2023/09/09 07:02:59;;;;;;;79.53;70.38;;;21.10;99.90;;;;;;5096767;28;20024;-66
2023/09/09 07:05:25;;;;;;;76.45;68.07;;;21.20;99.90;;;;;;5106203;28;20434;-65
2023/09/09 07:07:50;;;;;;;71.47;63.67;;;21.30;99.90;;;;;;5103852;28;20058;-65
2023/09/09 07:10:16;;;;;;;70.25;62.92;;;21.50;99.90;;;;;;5098476;28;20506;-66
2023/09/09 07:12:42;;;;;;;65.25;58.17;;;21.60;99.90;;;;;;5109920;28;20031;-65
2023/09/09 07:15:08;;;;;;;67.30;59.53;;;21.60;99.90;;;;;;5097711;28;20012;-65
2023/09/09 07:17:34;;;;;;;61.90;51.90;;;21.70;99.90;;;;;;5104744;28;20080;-66
2023/09/09 07:19:59;;;;;;;53.85;47.25;;;21.90;99.90;;;;;;5105104;28;20102;-65
2023/09/09 07:22:25;;;;;;;52.97;45.88;;;22.10;99.90;;;;;;5109657;28;20463;-66
2023/09/09 07:24:51;;;;;;;52.17;44.58;;;22.40;99.90;;;;;;5110487;28;20039;-65
2023/09/09 07:27:16;;;;;;;50.28;42.10;;;22.70;99.90;;;;;;5098715;28;20020;-63
2023/09/09 07:29:42;;;;;;;47.03;40.80;;;23.20;99.90;;;;;;5103676;28;20074;-66
2023/09/09 07:32:08;;;;;;;46.35;38.78;;;23.80;99.90;;;;;;5105822;28;20036;-65
2023/09/09 07:34:34;;;;;;;42.42;37.42;;;24.60;99.90;;;;;;5106426;28;20375;-66
2023/09/09 07:37:00;;;;;;;42.45;35.00;;;25.50;99.90;;;;;;5108157;28;20093;-65
2023/09/09 07:39:28;;;;;;;38.17;32.08;;;26.40;99.90;;;;;;5112069;28;20044;-66
2023/09/09 07:41:54;;;;;;;34.05;29.02;;;27.50;99.90;;;;;;5113025;28;20089;-65
2023/09/09 07:44:19;;;;;;;33.38;28.33;;;28.50;99.90;;;;;;5113284;28;20474;-65
2023/09/09 07:46:45;;;;;;;31.67;25.60;;;29.50;99.90;;;;;;5113682;28;20387;-66
2023/09/09 07:49:11;;;;;;;29.08;24.17;;;30.30;99.90;;;;;;5112913;28;20441;-65
2023/09/09 07:51:36;;;;;;;29.85;23.65;;;31.20;99.90;;;;;;5108614;28;20123;-65
2023/09/09 07:54:02;;;;;;;29.23;23.65;;;32.00;98.90;;;;;;5113293;28;20036;-65
2023/09/09 07:56:27;;;;;;;26.98;21.08;;;32.70;97.80;;;;;;5100862;28;20020;-65
2023/09/09 07:58:53;;;;;;;27.77;22.65;;;33.30;96.60;;;;;;5095120;28;20015;-64
2023/09/09 08:01:19;;;;;;;28.20;22.67;;;34.00;95.80;;;;;;5113125;28;20024;-65
2023/09/09 08:03:45;;;;;;;27.52;21.20;;;34.70;95.10;;;;;;5103098;28;20447;-65
2023/09/09 08:06:10;;;;;;;27.67;20.95;;;35.30;93.70;;;;;;5106719;28;20099;-65
2023/09/09 08:08:36;;;;;;;23.90;19.63;;;35.70;93.10;;;;;;5104524;28;20479;-65
2023/09/09 08:11:03;;;;;;;23.95;19.40;;;36.10;92.50;;;;;;5116188;28;20111;-65
2023/09/09 08:13:28;;;;;;;27.63;19.88;;;36.50;91.70;;;;;;5114912;28;20095;-65
2023/09/09 08:15:54;;;;;;;21.83;17.55;;;36.80;91.40;;;;;;5111509;28;20464;-66
2023/09/09 08:18:19;;;;;;;20.85;17.05;;;37.20;91.10;;;;;;5099181;28;20036;-66
2023/09/09 08:20:49;;;;;;;21.88;18.13;;;37.70;90.90;;;;;;5094750;28;20024;-64
2023/09/09 08:23:15;;;;;;;23.52;17.75;;;38.10;90.00;;;;;;5112329;28;20082;-65
2023/09/09 08:25:40;;;;;;;21.58;17.35;;;38.50;89.10;;;;;;5112288;28;20613;-65
2023/09/09 08:28:06;;;;;;;20.95;15.40;;;38.80;88.40;;;;;;5109728;28;20107;-64
2023/09/09 08:30:31;;;;;;;19.15;14.38;;;39.10;87.00;;;;;;5100737;28;20500;-64
2023/09/09 08:32:57;;;;;;;21.13;13.45;;;39.40;85.80;;;;;;5110853;28;20024;-65
2023/09/09 08:35:25;;;;;;;22.08;15.43;;;39.70;84.70;;;;;;5098955;28;20012;-65
2023/09/09 08:37:52;;;;;;;19.88;13.77;;;39.90;84.20;;;;;;5098333;28;20032;-66
2023/09/09 08:40:18;;;;;;;17.63;12.73;;;40.10;83.40;;;;;;5098741;28;20032;-65
2023/09/09 08:43:18;;;;;;;16.65;13.00;;;40.20;83.30;;;;;;5098914;28;20032;-65
2023/09/09 08:46:05;;;;;;;17.40;12.93;;;40.50;83.10;;;;;;5112132;28;20031;-66
2023/09/09 08:48:36;;;;;;;15.23;11.75;;;40.90;82.20;;;;;;5112727;28;20034;-65
2023/09/09 08:51:03;;;;;;;;;;;41.20;80.60;;;;;;5112598;28;20051;-66
2023/09/09 08:53:33;;;;;;;17.80;12.50;;;41.50;79.60;;;;;;5111120;28;20274;-66
2023/09/09 08:56:00;;;;;;;16.35;11.15;;;41.50;78.20;;;;;;5105943;28;20459;-66
2023/09/09 08:58:27;;;;;;;15.43;10.82;;;41.60;78.80;;;;;;5098599;28;20142;-66
2023/09/09 09:00:54;;;;;;;15.88;9.70;;;41.80;78.60;;;;;;5108635;28;20055;-65
2023/09/09 09:03:20;;;;;;;11.57;9.23;;;42.10;77.90;;;;;;5112061;28;20054;-66
2023/09/09 09:05:47;;;;;;;12.73;9.30;;;42.40;77.90;;;;;;5102483;28;20030;-66
2023/09/09 09:08:12;;;;;;;11.55;8.35;;;42.70;76.90;;;;;;5112078;28;20032;-66
2023/09/09 09:10:40;;;;;;;9.75;7.82;;;42.90;75.80;;;;;;5111090;28;20036;-67
2023/09/09 09:13:05;;;;;;;10.18;7.30;;;43.00;75.40;;;;;;5111568;28;20053;-65
2023/09/09 09:15:32;;;;;;;9.85;6.90;;;42.90;76.00;;;;;;5112144;28;20024;-66
2023/09/09 09:18:00;;;;;;;9.52;7.10;;;43.00;74.30;;;;;;5107170;28;20032;-66
2023/09/09 09:20:27;;;;;;;10.98;6.70;;;43.20;74.50;;;;;;5102366;28;20062;-65
2023/09/09 09:22:57;;;;;;;9.02;6.53;;;43.40;73.70;;;;;;5111425;28;20063;-65
2023/09/09 09:25:24;;;;;;;10.55;5.82;;;43.50;73.30;;;;;;5098758;28;20039;-66
2023/09/09 09:27:49;;;;;;;9.30;5.75;;;43.60;72.70;;;;;;5102480;28;20031;-66
2023/09/09 09:30:23;;;;;;;10.38;5.55;;;43.70;72.00;;;;;;5108464;28;20036;-66
2023/09/09 09:32:52;;;;;;;6.50;5.80;;;43.80;72.00;;;;;;5100128;28;20396;-66
2023/09/09 09:35:28;;;;;;;11.63;6.47;;;43.90;71.60;;;;;;5112472;28;20028;-66
2023/09/09 09:38:09;;;;;;;7.50;5.68;;;43.90;71.40;;;;;;5108532;28;20388;-66
2023/09/09 09:40:35;;;;;;;7.25;5.63;;;43.70;71.00;;;;;;5108787;28;20039;-65
2023/09/09 09:43:02;;;;;;;7.80;6.10;;;43.80;70.50;;;;;;5101965;28;20039;-67
2023/09/09 09:45:29;;;;;;;9.15;5.53;;;44.00;70.50;;;;;;5098837;28;20051;-65
2023/09/09 09:47:57;;;;;;;9.00;5.47;;;44.00;69.90;;;;;;5095039;28;20502;-65
2023/09/09 09:50:30;;;;;;;8.25;5.32;;;44.00;69.40;;;;;;5107793;28;20032;-66
2023/09/09 09:53:04;;;;;;;8.48;5.13;;;44.10;69.90;;;;;;5112139;28;20032;-66
2023/09/09 09:55:32;;;;;;;9.65;5.15;;;44.30;68.60;;;;;;5102393;28;20030;-66
2023/09/09 09:58:06;;;;;;;9.10;5.00;;;44.40;68.50;;;;;;5108465;28;20035;-65
2023/09/09 10:00:38;;;;;;;8.15;4.90;;;44.60;67.20;;;;;;5107613;28;20084;-65
2023/09/09 10:03:05;;;;;;;7.20;5.07;;;44.70;68.20;;;;;;5101748;28;20016;-65
2023/09/09 10:05:33;;;;;;;8.50;4.95;;;44.70;67.20;;;;;;5109325;28;20024;-66
2023/09/09 10:08:39;;;;;;;8.73;4.85;;;44.90;67.00;;;;;;5103862;28;20032;-67
2023/09/09 10:11:07;;;;;;;8.93;4.47;;;44.90;66.80;;;;;;5093782;28;20554;-65
2023/09/09 10:13:40;;;;;;;6.60;4.40;;;44.80;65.80;;;;;;5094105;28;20069;-66
2023/09/09 10:16:08;;;;;;;9.02;4.85;;;44.90;65.90;;;;;;5098952;28;20028;-66
2023/09/09 10:18:37;;;;;;;9.70;4.43;;;45.00;66.20;;;;;;5107743;28;20111;-66
2023/09/09 10:21:06;;;;;;;8.90;4.68;;;45.00;66.50;;;;;;5097101;28;20110;-66
2023/09/09 10:23:32;;;;;;;9.55;4.72;;;45.00;65.50;;;;;;5109137;28;20376;-66
2023/09/09 10:25:59;;;;;;;7.80;4.63;;;45.20;65.20;;;;;;5101551;28;20032;-66
2023/09/09 10:28:26;;;;;;;7.40;4.85;;;45.40;64.90;;;;;;5102395;28;20024;-66
2023/09/09 10:30:54;;;;;;;7.65;4.10;;;45.50;65.00;;;;;;5109899;28;20059;-66
2023/09/09 10:33:20;;;;;;;5.68;4.30;;;45.60;64.70;;;;;;5097131;28;20106;-66
2023/09/09 10:35:50;;;;;;;8.75;4.65;;;45.50;63.90;;;;;;5107276;28;20499;-66
2023/09/09 10:38:17;;;;;;;10.00;4.87;;;45.20;64.60;;;;;;5104145;28;20050;-67
2023/09/09 10:40:46;;;;;;;6.47;4.50;;;45.40;64.50;;;;;;5099224;27;20357;-67
2023/09/09 10:43:30;;;;;;;8.32;4.53;;;45.50;63.70;;;;;;5110786;28;20035;-67
2023/09/09 10:45:56;;;;;;;10.38;4.63;;;45.60;64.10;;;;;;5109498;28;20024;-67
2023/09/09 10:48:23;;;;;;;10.45;4.63;;;45.60;63.80;;;;;;5102565;28;20103;-66
2023/09/09 10:50:53;;;;;;;7.82;4.43;;;45.70;63.50;;;;;;5109327;28;20023;-66
2023/09/09 10:53:22;;;;;;;7.35;4.57;;;45.80;63.70;;;;;;5079096;28;20082;-67
2023/09/09 10:55:53;;;;;;;7.67;4.63;;;45.70;63.00;;;;;;5113414;28;20024;-65
2023/09/09 10:58:20;;;;;;;13.20;5.95;;;45.60;63.10;;;;;;5101393;28;20024;-68
2023/09/09 11:00:48;;;;;;;7.20;4.60;;;45.40;63.50;;;;;;5108246;28;20031;-67
2023/09/09 11:03:14;;;;;;;32.05;17.15;;;45.40;63.50;;;;;;5095460;28;22187;-67
2023/09/09 11:06:05;;;;;;;7.78;4.85;;;45.20;63.40;;;;;;5110806;28;20030;-67
2023/09/09 11:08:46;;;;;;;6.55;5.10;;;45.30;63.30;;;;;;5102398;28;20050;-68
2023/09/09 11:11:17;;;;;;;7.50;5.57;;;45.10;63.80;;;;;;5107147;28;20063;-66
2023/09/09 11:13:42;;;;;;;9.57;5.60;;;45.10;63.70;;;;;;5108590;28;20456;-67
2023/09/09 11:16:23;;;;;;;8.25;4.75;;;45.30;63.20;;;;;;5101489;28;20033;-67
2023/09/09 11:18:51;;;;;;;7.90;4.75;;;45.30;63.10;;;;;;5107100;28;20406;-67
2023/09/09 11:21:22;;;;;;;8.05;4.93;;;45.50;63.50;;;;;;5102808;28;20024;-67
2023/09/09 11:23:50;;;;;;;7.47;4.70;;;45.60;62.60;;;;;;5099908;28;20102;-67
2023/09/09 11:26:16;;;;;;;8.68;4.80;;;45.80;62.60;;;;;;5110301;28;20122;-67
2023/09/09 11:28:46;;;;;;;11.05;6.50;;;45.90;62.70;;;;;;5099222;28;20052;-67
2023/09/09 11:31:15;;;;;;;9.90;5.40;;;45.90;62.80;;;;;;5108158;28;20058;-67
2023/09/09 11:33:41;;;;;;;6.32;4.50;;;45.80;62.20;;;;;;5101953;27;20263;-67
2023/09/09 11:36:07;;;;;;;10.73;5.20;;;45.90;62.60;;;;;;5112028;28;20023;-67
2023/09/09 11:38:39;;;;;;;11.30;6.95;;;45.80;62.80;;;;;;5113094;28;20020;-66
2023/09/09 11:41:10;;;;;;;13.30;6.38;;;45.80;62.80;;;;;;5099860;28;20059;-68
2023/09/09 11:43:35;;;;;;;6.95;5.25;;;45.80;62.60;;;;;;5096882;28;20028;-66
2023/09/09 11:46:03;;;;;;;10.80;5.60;;;45.80;62.50;;;;;;5104188;28;20069;-68
2023/09/09 11:48:31;;;;;;;6.35;4.70;;;45.80;62.70;;;;;;5105889;28;20059;-67
2023/09/09 11:50:59;;;;;;;9.00;5.28;;;45.90;62.50;;;;;;5110596;28;20527;-67
2023/09/09 11:53:25;;;;;;;10.60;5.60;;;45.90;62.10;;;;;;5107593;28;20031;-68
2023/09/09 11:55:54;;;;;;;10.55;5.40;;;46.00;62.40;;;;;;5092965;28;20090;-67
2023/09/09 11:58:20;;;;;;;7.22;4.93;;;46.00;62.70;;;;;;5099358;28;20020;-69
2023/09/09 12:00:46;;;;;;;9.02;4.93;;;46.10;62.50;;;;;;5108191;28;20082;-67
2023/09/09 12:03:23;;;;;;;7.22;4.47;;;46.20;62.40;;;;;;5111307;28;20075;-68
2023/09/09 12:05:56;;;;;;;7.13;4.90;;;46.30;62.20;;;;;;5107951;28;20462;-66
2023/09/09 12:08:22;;;;;;;6.38;5.13;;;46.30;61.80;;;;;;5100327;28;20974;-68
2023/09/09 12:10:49;;;;;;;8.98;5.03;;;46.10;61.90;;;;;;5102798;28;20040;-67
2023/09/09 12:13:15;;;;;;;7.22;5.00;;;46.00;62.30;;;;;;5108921;28;20158;-67
2023/09/09 12:15:42;;;;;;;6.30;4.65;;;45.90;62.50;;;;;;5093215;28;20099;-68
2023/09/09 12:18:12;;;;;;;9.13;5.45;;;45.90;62.20;;;;;;5105286;28;20082;-67
2023/09/09 12:20:57;;;;;;;6.95;4.68;;;45.70;62.50;;;;;;5094897;28;20082;-68